KFOK/FOK METAR and TAF weather

Enter ICAO airport designator
Station Type Date Time Source
KFOK METAR 2021/09/23 16:53 UTC NOAA

KFOK 231653Z 13010G23KT 100V160 10SM CLR 26/22 A3002 RMK AO2 SLP164 T02560217


Station Type Date Time Source
KFOK Decoded METAR 2021/09/23 16:53 UTC NOAA

THE GABRESKI AIRPORT, NY, United States (KFOK) 40-51N 072-37W 33M
Sep 23, 2021 - 12:53 PM EDT / 2021.09.23 1653 UTC
Wind: from the SE (130 degrees) at 12 MPH (10 KT) gusting to 26 MPH (23 KT) (direction variable):0
Visibility: 10 mile(s):0
Sky conditions: clear
Temperature: 78.1 F (25.6 C)
Dew Point: 71.1 F (21.7 C)
Relative Humidity: 79%
Pressure (altimeter): 30.02 in. Hg (1016 hPa)
ob: KFOK 231653Z 13010G23KT 100V160 10SM CLR 26/22 A3002 RMK AO2 SLP164 T02560217
cycle: 17

Station Type Date Time Source
KFOK TAF UTC NOAA

Error!

Example: see airport list